Aviation Digital Data Service (ADDS)

Output produced by TAFs form (1132 UTC 19 January 2018)
found at http://www.aviationweather.gov/adds/tafs/
 
RJFF 191100Z 16004KT 8000 FEW045 08/04 Q1019 RMK 1SC045 A3010
TAF RJFF 191107Z 1912/2018 15006KT 7000 FEW030 
     BECMG 2000/2003 33008KT 
     BECMG 2009/2012 14005KT